sensor_id;sensor_type;location;lat;lon;timestamp;P1;durP1;ratioP1;P2;durP2;ratioP2
60494;SDS011;46342;49.046;11.920;2023-10-19T00:01:09;14.60;;;8.85;;
60494;SDS011;46342;49.046;11.920;2023-10-19T00:03:35;13.52;;;8.55;;
60494;SDS011;46342;49.046;11.920;2023-10-19T00:06:01;18.73;;;9.40;;
60494;SDS011;46342;49.046;11.920;2023-10-19T00:08:26;14.57;;;8.63;;
60494;SDS011;46342;49.046;11.920;2023-10-19T00:11:01;14.70;;;9.15;;
60494;SDS011;46342;49.046;11.920;2023-10-19T00:13:29;16.25;;;9.88;;
60494;SDS011;46342;49.046;11.920;2023-10-19T00:15:55;16.25;;;9.48;;
60494;SDS011;46342;49.046;11.920;2023-10-19T00:18:23;16.70;;;9.53;;
60494;SDS011;46342;49.046;11.920;2023-10-19T00:20:55;15.10;;;8.70;;
60494;SDS011;46342;49.046;11.920;2023-10-19T00:23:44;13.13;;;8.60;;
60494;SDS011;46342;49.046;11.920;2023-10-19T00:26:12;14.38;;;9.07;;
60494;SDS011;46342;49.046;11.920;2023-10-19T00:28:50;15.77;;;9.43;;
60494;SDS011;46342;49.046;11.920;2023-10-19T00:31:18;15.27;;;8.38;;
60494;SDS011;46342;49.046;11.920;2023-10-19T00:33:47;13.15;;;8.00;;
60494;SDS011;46342;49.046;11.920;2023-10-19T00:36:16;15.77;;;8.90;;
60494;SDS011;46342;49.046;11.920;2023-10-19T00:38:45;16.50;;;9.35;;
60494;SDS011;46342;49.046;11.920;2023-10-19T00:41:15;12.23;;;8.10;;
60494;SDS011;46342;49.046;11.920;2023-10-19T00:43:54;13.68;;;8.55;;
60494;SDS011;46342;49.046;11.920;2023-10-19T00:46:27;14.85;;;8.07;;
60494;SDS011;46342;49.046;11.920;2023-10-19T00:49:09;12.60;;;8.25;;
60494;SDS011;46342;49.046;11.920;2023-10-19T00:51:39;13.40;;;8.50;;
60494;SDS011;46342;49.046;11.920;2023-10-19T00:54:20;13.43;;;8.65;;
60494;SDS011;46342;49.046;11.920;2023-10-19T00:57:05;12.67;;;7.63;;
60494;SDS011;46342;49.046;11.920;2023-10-19T00:59:36;12.07;;;7.40;;
60494;SDS011;46342;49.046;11.920;2023-10-19T01:02:12;14.07;;;8.90;;
60494;SDS011;46342;49.046;11.920;2023-10-19T01:04:44;14.68;;;7.93;;
60494;SDS011;46342;49.046;11.920;2023-10-19T01:07:15;12.15;;;7.75;;
60494;SDS011;46342;49.046;11.920;2023-10-19T01:09:47;11.75;;;8.10;;
60494;SDS011;46342;49.046;11.920;2023-10-19T01:12:15;11.10;;;7.20;;
60494;SDS011;46342;49.046;11.920;2023-10-19T01:17:51;16.52;;;7.90;;
60494;SDS011;46342;49.046;11.920;2023-10-19T01:20:29;15.15;;;7.85;;
60494;SDS011;46342;49.046;11.920;2023-10-19T01:25:43;12.07;;;7.80;;
60494;SDS011;46342;49.046;11.920;2023-10-19T01:28:12;11.15;;;7.25;;
60494;SDS011;46342;49.046;11.920;2023-10-19T01:30:42;14.05;;;8.48;;
60494;SDS011;46342;49.046;11.920;2023-10-19T01:33:09;12.48;;;8.82;;
60494;SDS011;46342;49.046;11.920;2023-10-19T01:35:39;14.00;;;8.55;;
60494;SDS011;46342;49.046;11.920;2023-10-19T01:38:23;11.73;;;7.80;;
60494;SDS011;46342;49.046;11.920;2023-10-19T01:40:50;11.98;;;8.10;;
60494;SDS011;46342;49.046;11.920;2023-10-19T01:43:16;10.23;;;7.72;;
60494;SDS011;46342;49.046;11.920;2023-10-19T01:45:55;13.40;;;8.15;;
60494;SDS011;46342;49.046;11.920;2023-10-19T01:48:21;14.15;;;8.07;;
60494;SDS011;46342;49.046;11.920;2023-10-19T01:51:02;12.25;;;8.00;;
60494;SDS011;46342;49.046;11.920;2023-10-19T01:53:35;12.13;;;7.70;;
60494;SDS011;46342;49.046;11.920;2023-10-19T01:56:01;12.65;;;8.23;;
60494;SDS011;46342;49.046;11.920;2023-10-19T01:58:30;12.88;;;8.80;;
60494;SDS011;46342;49.046;11.920;2023-10-19T02:01:01;14.13;;;8.90;;
60494;SDS011;46342;49.046;11.920;2023-10-19T02:03:34;13.98;;;8.10;;
60494;SDS011;46342;49.046;11.920;2023-10-19T02:06:00;13.55;;;8.55;;
60494;SDS011;46342;49.046;11.920;2023-10-19T02:08:44;11.30;;;8.18;;
60494;SDS011;46342;49.046;11.920;2023-10-19T02:11:21;12.25;;;7.30;;
60494;SDS011;46342;49.046;11.920;2023-10-19T02:13:49;12.02;;;8.05;;
60494;SDS011;46342;49.046;11.920;2023-10-19T02:16:17;13.15;;;8.70;;
60494;SDS011;46342;49.046;11.920;2023-10-19T02:18:50;13.07;;;8.52;;
60494;SDS011;46342;49.046;11.920;2023-10-19T02:21:16;16.75;;;9.32;;
60494;SDS011;46342;49.046;11.920;2023-10-19T02:23:52;13.45;;;8.18;;
60494;SDS011;46342;49.046;11.920;2023-10-19T02:26:18;12.30;;;7.80;;
60494;SDS011;46342;49.046;11.920;2023-10-19T02:28:46;13.70;;;8.88;;
60494;SDS011;46342;49.046;11.920;2023-10-19T02:31:12;10.25;;;6.82;;
60494;SDS011;46342;49.046;11.920;2023-10-19T02:33:43;11.20;;;7.95;;
60494;SDS011;46342;49.046;11.920;2023-10-19T02:36:16;15.90;;;9.02;;
60494;SDS011;46342;49.046;11.920;2023-10-19T02:38:44;11.95;;;8.10;;
60494;SDS011;46342;49.046;11.920;2023-10-19T02:41:16;11.80;;;8.27;;
60494;SDS011;46342;49.046;11.920;2023-10-19T02:43:43;11.98;;;8.02;;
60494;SDS011;46342;49.046;11.920;2023-10-19T02:46:38;13.00;;;8.80;;
60494;SDS011;46342;49.046;11.920;2023-10-19T02:49:07;13.35;;;8.65;;
60494;SDS011;46342;49.046;11.920;2023-10-19T02:51:43;12.88;;;8.38;;
60494;SDS011;46342;49.046;11.920;2023-10-19T02:54:12;12.07;;;8.23;;
60494;SDS011;46342;49.046;11.920;2023-10-19T02:56:43;12.70;;;8.38;;
60494;SDS011;46342;49.046;11.920;2023-10-19T02:59:12;12.93;;;8.80;;
60494;SDS011;46342;49.046;11.920;2023-10-19T03:01:40;13.15;;;8.65;;
60494;SDS011;46342;49.046;11.920;2023-10-19T03:04:09;10.63;;;7.53;;
60494;SDS011;46342;49.046;11.920;2023-10-19T03:09:04;11.90;;;6.65;;
60494;SDS011;46342;49.046;11.920;2023-10-19T03:11:37;14.05;;;8.23;;
60494;SDS011;46342;49.046;11.920;2023-10-19T03:14:06;12.18;;;8.07;;
60494;SDS011;46342;49.046;11.920;2023-10-19T03:16:32;12.15;;;8.27;;
60494;SDS011;46342;49.046;11.920;2023-10-19T03:18:57;14.45;;;8.55;;
60494;SDS011;46342;49.046;11.920;2023-10-19T03:21:23;12.27;;;8.48;;
60494;SDS011;46342;49.046;11.920;2023-10-19T03:26:18;10.55;;;7.47;;
60494;SDS011;46342;49.046;11.920;2023-10-19T03:28:55;10.88;;;7.80;;
60494;SDS011;46342;49.046;11.920;2023-10-19T03:31:32;13.68;;;8.25;;
60494;SDS011;46342;49.046;11.920;2023-10-19T03:33:58;12.85;;;8.38;;
60494;SDS011;46342;49.046;11.920;2023-10-19T03:36:24;12.15;;;8.98;;
60494;SDS011;46342;49.046;11.920;2023-10-19T03:38:51;10.65;;;7.70;;
60494;SDS011;46342;49.046;11.920;2023-10-19T03:41:18;11.57;;;9.23;;
60494;SDS011;46342;49.046;11.920;2023-10-19T03:43:51;11.80;;;8.40;;
60494;SDS011;46342;49.046;11.920;2023-10-19T03:46:22;12.63;;;8.07;;
60494;SDS011;46342;49.046;11.920;2023-10-19T03:49:00;13.65;;;8.52;;
60494;SDS011;46342;49.046;11.920;2023-10-19T03:51:35;12.52;;;8.63;;
60494;SDS011;46342;49.046;11.920;2023-10-19T03:54:25;11.57;;;8.00;;
60494;SDS011;46342;49.046;11.920;2023-10-19T03:56:52;14.02;;;9.07;;
60494;SDS011;46342;49.046;11.920;2023-10-19T03:59:18;14.98;;;9.25;;
60494;SDS011;46342;49.046;11.920;2023-10-19T04:01:45;13.27;;;8.70;;
60494;SDS011;46342;49.046;11.920;2023-10-19T04:04:10;12.65;;;8.75;;
60494;SDS011;46342;49.046;11.920;2023-10-19T04:06:36;13.40;;;8.73;;
60494;SDS011;46342;49.046;11.920;2023-10-19T04:09:03;11.95;;;8.45;;
60494;SDS011;46342;49.046;11.920;2023-10-19T04:11:32;12.50;;;8.93;;
60494;SDS011;46342;49.046;11.920;2023-10-19T04:14:01;11.80;;;8.75;;
60494;SDS011;46342;49.046;11.920;2023-10-19T04:16:29;17.35;;;12.82;;
60494;SDS011;46342;49.046;11.920;2023-10-19T04:18:56;12.88;;;9.60;;
60494;SDS011;46342;49.046;11.920;2023-10-19T04:21:23;16.42;;;9.25;;
60494;SDS011;46342;49.046;11.920;2023-10-19T04:23:48;11.35;;;8.68;;
60494;SDS011;46342;49.046;11.920;2023-10-19T04:26:14;14.25;;;9.57;;
60494;SDS011;46342;49.046;11.920;2023-10-19T04:28:43;15.15;;;8.70;;
60494;SDS011;46342;49.046;11.920;2023-10-19T04:31:15;14.35;;;9.40;;
60494;SDS011;46342;49.046;11.920;2023-10-19T04:33:42;14.15;;;8.90;;
60494;SDS011;46342;49.046;11.920;2023-10-19T04:38:37;12.52;;;8.10;;
60494;SDS011;46342;49.046;11.920;2023-10-19T04:41:06;14.13;;;8.95;;
60494;SDS011;46342;49.046;11.920;2023-10-19T04:43:33;15.65;;;8.73;;
60494;SDS011;46342;49.046;11.920;2023-10-19T04:46:00;10.55;;;7.22;;
60494;SDS011;46342;49.046;11.920;2023-10-19T04:48:32;14.13;;;8.85;;
60494;SDS011;46342;49.046;11.920;2023-10-19T04:50:58;12.13;;;8.50;;
60494;SDS011;46342;49.046;11.920;2023-10-19T04:53:23;15.75;;;8.93;;
60494;SDS011;46342;49.046;11.920;2023-10-19T04:55:49;12.13;;;7.97;;
60494;SDS011;46342;49.046;11.920;2023-10-19T04:58:15;14.65;;;9.20;;
60494;SDS011;46342;49.046;11.920;2023-10-19T05:00:40;15.35;;;9.70;;
60494;SDS011;46342;49.046;11.920;2023-10-19T05:03:06;14.02;;;8.93;;
60494;SDS011;46342;49.046;11.920;2023-10-19T05:05:32;15.57;;;9.25;;
60494;SDS011;46342;49.046;11.920;2023-10-19T05:07:57;16.15;;;10.18;;
60494;SDS011;46342;49.046;11.920;2023-10-19T05:10:23;13.93;;;9.63;;
60494;SDS011;46342;49.046;11.920;2023-10-19T05:12:50;12.63;;;8.77;;
60494;SDS011;46342;49.046;11.920;2023-10-19T05:15:15;12.55;;;8.70;;
60494;SDS011;46342;49.046;11.920;2023-10-19T05:17:41;13.45;;;8.80;;
60494;SDS011;46342;49.046;11.920;2023-10-19T05:20:06;13.65;;;9.18;;
60494;SDS011;46342;49.046;11.920;2023-10-19T05:22:32;14.70;;;9.38;;
60494;SDS011;46342;49.046;11.920;2023-10-19T05:24:58;14.88;;;9.43;;
60494;SDS011;46342;49.046;11.920;2023-10-19T05:27:23;14.98;;;8.50;;
60494;SDS011;46342;49.046;11.920;2023-10-19T05:29:50;14.48;;;9.77;;
60494;SDS011;46342;49.046;11.920;2023-10-19T05:32:16;15.57;;;9.90;;
60494;SDS011;46342;49.046;11.920;2023-10-19T05:34:42;14.13;;;9.80;;
60494;SDS011;46342;49.046;11.920;2023-10-19T05:37:07;17.63;;;10.52;;
60494;SDS011;46342;49.046;11.920;2023-10-19T05:39:33;17.05;;;10.73;;
60494;SDS011;46342;49.046;11.920;2023-10-19T05:42:01;15.40;;;10.05;;
60494;SDS011;46342;49.046;11.920;2023-10-19T05:44:29;15.40;;;10.07;;
60494;SDS011;46342;49.046;11.920;2023-10-19T05:46:55;16.23;;;9.90;;
60494;SDS011;46342;49.046;11.920;2023-10-19T05:49:21;14.15;;;9.82;;
60494;SDS011;46342;49.046;11.920;2023-10-19T05:51:48;14.48;;;8.65;;
60494;SDS011;46342;49.046;11.920;2023-10-19T05:54:14;13.93;;;9.95;;
60494;SDS011;46342;49.046;11.920;2023-10-19T05:56:40;13.73;;;9.98;;
60494;SDS011;46342;49.046;11.920;2023-10-19T05:59:07;13.18;;;9.63;;
60494;SDS011;46342;49.046;11.920;2023-10-19T06:01:34;14.25;;;9.95;;
60494;SDS011;46342;49.046;11.920;2023-10-19T06:04:00;13.02;;;9.45;;
60494;SDS011;46342;49.046;11.920;2023-10-19T06:06:26;15.57;;;9.70;;
60494;SDS011;46342;49.046;11.920;2023-10-19T06:08:51;13.95;;;9.30;;
60494;SDS011;46342;49.046;11.920;2023-10-19T06:11:18;15.07;;;10.60;;
60494;SDS011;46342;49.046;11.920;2023-10-19T06:13:45;17.35;;;9.93;;
60494;SDS011;46342;49.046;11.920;2023-10-19T06:16:11;19.65;;;10.93;;
60494;SDS011;46342;49.046;11.920;2023-10-19T06:18:36;16.08;;;10.13;;
60494;SDS011;46342;49.046;11.920;2023-10-19T06:21:02;15.15;;;10.13;;
60494;SDS011;46342;49.046;11.920;2023-10-19T06:23:29;15.52;;;10.02;;
60494;SDS011;46342;49.046;11.920;2023-10-19T06:25:56;15.67;;;10.20;;
60494;SDS011;46342;49.046;11.920;2023-10-19T06:28:22;14.98;;;10.27;;
60494;SDS011;46342;49.046;11.920;2023-10-19T06:30:47;14.35;;;9.25;;
60494;SDS011;46342;49.046;11.920;2023-10-19T06:33:13;13.88;;;9.10;;
60494;SDS011;46342;49.046;11.920;2023-10-19T06:35:38;11.90;;;8.75;;
60494;SDS011;46342;49.046;11.920;2023-10-19T06:38:05;12.93;;;8.73;;
60494;SDS011;46342;49.046;11.920;2023-10-19T06:40:34;12.93;;;9.60;;
60494;SDS011;46342;49.046;11.920;2023-10-19T06:43:02;14.70;;;9.85;;
60494;SDS011;46342;49.046;11.920;2023-10-19T06:45:29;16.38;;;9.68;;
60494;SDS011;46342;49.046;11.920;2023-10-19T06:47:55;17.92;;;10.48;;
60494;SDS011;46342;49.046;11.920;2023-10-19T06:50:21;14.65;;;8.88;;
60494;SDS011;46342;49.046;11.920;2023-10-19T06:52:48;16.92;;;10.25;;
60494;SDS011;46342;49.046;11.920;2023-10-19T06:55:14;15.95;;;10.60;;
60494;SDS011;46342;49.046;11.920;2023-10-19T06:58:03;13.60;;;10.32;;
60494;SDS011;46342;49.046;11.920;2023-10-19T07:00:29;17.15;;;9.68;;
60494;SDS011;46342;49.046;11.920;2023-10-19T07:02:56;15.50;;;10.30;;
60494;SDS011;46342;49.046;11.920;2023-10-19T07:05:22;16.40;;;10.10;;
60494;SDS011;46342;49.046;11.920;2023-10-19T07:07:49;15.98;;;9.45;;
60494;SDS011;46342;49.046;11.920;2023-10-19T07:10:20;13.93;;;9.80;;
60494;SDS011;46342;49.046;11.920;2023-10-19T07:12:47;17.52;;;9.27;;
60494;SDS011;46342;49.046;11.920;2023-10-19T07:15:14;17.90;;;10.70;;
60494;SDS011;46342;49.046;11.920;2023-10-19T07:17:40;15.80;;;10.82;;
60494;SDS011;46342;49.046;11.920;2023-10-19T07:20:07;15.63;;;9.98;;
60494;SDS011;46342;49.046;11.920;2023-10-19T07:22:34;17.20;;;10.75;;
60494;SDS011;46342;49.046;11.920;2023-10-19T07:25:04;14.93;;;9.95;;
60494;SDS011;46342;49.046;11.920;2023-10-19T07:27:31;17.17;;;10.60;;
60494;SDS011;46342;49.046;11.920;2023-10-19T07:29:58;14.32;;;10.20;;
60494;SDS011;46342;49.046;11.920;2023-10-19T07:32:24;14.35;;;10.63;;
60494;SDS011;46342;49.046;11.920;2023-10-19T07:34:50;16.02;;;10.60;;
60494;SDS011;46342;49.046;11.920;2023-10-19T07:37:15;18.27;;;10.88;;
60494;SDS011;46342;49.046;11.920;2023-10-19T07:39:44;18.85;;;11.43;;
60494;SDS011;46342;49.046;11.920;2023-10-19T07:42:11;19.13;;;10.75;;
60494;SDS011;46342;49.046;11.920;2023-10-19T07:44:37;17.77;;;10.63;;
60494;SDS011;46342;49.046;11.920;2023-10-19T07:47:02;16.95;;;10.23;;
60494;SDS011;46342;49.046;11.920;2023-10-19T07:49:28;16.15;;;11.10;;
60494;SDS011;46342;49.046;11.920;2023-10-19T07:51:54;17.02;;;10.30;;
60494;SDS011;46342;49.046;11.920;2023-10-19T07:54:20;17.67;;;11.20;;
60494;SDS011;46342;49.046;11.920;2023-10-19T07:56:45;16.98;;;11.20;;
60494;SDS011;46342;49.046;11.920;2023-10-19T07:59:12;17.02;;;10.82;;
60494;SDS011;46342;49.046;11.920;2023-10-19T08:01:37;15.32;;;10.50;;
60494;SDS011;46342;49.046;11.920;2023-10-19T08:04:04;18.73;;;11.85;;
60494;SDS011;46342;49.046;11.920;2023-10-19T08:06:30;18.38;;;10.88;;
60494;SDS011;46342;49.046;11.920;2023-10-19T08:08:56;17.23;;;10.93;;
60494;SDS011;46342;49.046;11.920;2023-10-19T08:11:22;18.05;;;11.25;;
60494;SDS011;46342;49.046;11.920;2023-10-19T08:13:48;18.77;;;12.30;;
60494;SDS011;46342;49.046;11.920;2023-10-19T08:16:15;16.48;;;11.07;;
60494;SDS011;46342;49.046;11.920;2023-10-19T08:18:41;17.70;;;12.13;;
60494;SDS011;46342;49.046;11.920;2023-10-19T08:21:07;17.80;;;11.10;;
60494;SDS011;46342;49.046;11.920;2023-10-19T08:23:33;19.48;;;11.85;;
60494;SDS011;46342;49.046;11.920;2023-10-19T08:25:58;19.00;;;12.30;;
60494;SDS011;46342;49.046;11.920;2023-10-19T08:28:24;17.50;;;11.80;;
60494;SDS011;46342;49.046;11.920;2023-10-19T08:30:50;19.40;;;12.00;;
60494;SDS011;46342;49.046;11.920;2023-10-19T08:33:25;17.98;;;11.38;;
60494;SDS011;46342;49.046;11.920;2023-10-19T08:35:52;16.42;;;11.38;;
60494;SDS011;46342;49.046;11.920;2023-10-19T08:38:25;18.48;;;11.65;;
60494;SDS011;46342;49.046;11.920;2023-10-19T08:40:51;19.95;;;11.52;;
60494;SDS011;46342;49.046;11.920;2023-10-19T08:43:20;17.65;;;11.52;;
60494;SDS011;46342;49.046;11.920;2023-10-19T08:45:46;18.88;;;11.82;;
60494;SDS011;46342;49.046;11.920;2023-10-19T08:48:12;23.38;;;13.43;;
60494;SDS011;46342;49.046;11.920;2023-10-19T08:50:38;21.27;;;11.82;;
60494;SDS011;46342;49.046;11.920;2023-10-19T08:53:06;18.70;;;12.25;;
60494;SDS011;46342;49.046;11.920;2023-10-19T08:55:39;19.77;;;11.60;;
60494;SDS011;46342;49.046;11.920;2023-10-19T08:58:04;22.00;;;13.48;;
60494;SDS011;46342;49.046;11.920;2023-10-19T09:00:42;20.83;;;12.63;;
60494;SDS011;46342;49.046;11.920;2023-10-19T09:03:20;17.88;;;11.68;;
60494;SDS011;46342;49.046;11.920;2023-10-19T09:05:46;17.73;;;10.82;;
60494;SDS011;46342;49.046;11.920;2023-10-19T09:08:15;20.13;;;11.13;;
60494;SDS011;46342;49.046;11.920;2023-10-19T09:10:42;20.17;;;12.55;;
60494;SDS011;46342;49.046;11.920;2023-10-19T09:13:10;23.67;;;13.13;;
60494;SDS011;46342;49.046;11.920;2023-10-19T09:15:37;25.20;;;13.32;;
60494;SDS011;46342;49.046;11.920;2023-10-19T09:18:14;18.50;;;11.02;;
60494;SDS011;46342;49.046;11.920;2023-10-19T09:20:41;19.85;;;12.73;;
60494;SDS011;46342;49.046;11.920;2023-10-19T09:23:17;20.08;;;12.77;;
60494;SDS011;46342;49.046;11.920;2023-10-19T09:25:50;21.73;;;13.00;;
60494;SDS011;46342;49.046;11.920;2023-10-19T09:28:19;20.20;;;12.20;;
60494;SDS011;46342;49.046;11.920;2023-10-19T09:30:45;21.40;;;12.23;;
60494;SDS011;46342;49.046;11.920;2023-10-19T09:33:12;21.80;;;12.52;;
60494;SDS011;46342;49.046;11.920;2023-10-19T09:35:43;19.65;;;11.90;;
60494;SDS011;46342;49.046;11.920;2023-10-19T09:38:21;18.95;;;11.65;;
60494;SDS011;46342;49.046;11.920;2023-10-19T09:40:50;19.50;;;12.45;;
60494;SDS011;46342;49.046;11.920;2023-10-19T09:43:18;21.33;;;12.45;;
60494;SDS011;46342;49.046;11.920;2023-10-19T09:46:08;18.73;;;11.70;;
60494;SDS011;46342;49.046;11.920;2023-10-19T09:48:37;20.73;;;11.75;;
60494;SDS011;46342;49.046;11.920;2023-10-19T09:51:06;23.70;;;12.15;;
60494;SDS011;46342;49.046;11.920;2023-10-19T09:53:34;19.92;;;13.13;;
60494;SDS011;46342;49.046;11.920;2023-10-19T09:56:01;24.15;;;14.27;;
60494;SDS011;46342;49.046;11.920;2023-10-19T09:58:35;21.45;;;12.55;;
60494;SDS011;46342;49.046;11.920;2023-10-19T10:01:03;21.15;;;12.90;;
60494;SDS011;46342;49.046;11.920;2023-10-19T10:03:47;18.83;;;11.75;;
60494;SDS011;46342;49.046;11.920;2023-10-19T10:06:17;21.00;;;12.85;;
60494;SDS011;46342;49.046;11.920;2023-10-19T10:08:53;21.17;;;12.25;;
60494;SDS011;46342;49.046;11.920;2023-10-19T10:11:20;20.60;;;12.68;;
60494;SDS011;46342;49.046;11.920;2023-10-19T10:13:54;20.25;;;13.07;;
60494;SDS011;46342;49.046;11.920;2023-10-19T10:16:22;20.65;;;12.68;;
60494;SDS011;46342;49.046;11.920;2023-10-19T10:18:50;19.75;;;12.73;;
60494;SDS011;46342;49.046;11.920;2023-10-19T10:21:22;22.58;;;12.85;;
60494;SDS011;46342;49.046;11.920;2023-10-19T10:23:55;20.52;;;12.48;;
60494;SDS011;46342;49.046;11.920;2023-10-19T10:26:24;21.80;;;12.80;;
60494;SDS011;46342;49.046;11.920;2023-10-19T10:31:35;14.55;;;9.70;;
60494;SDS011;46342;49.046;11.920;2023-10-19T10:34:08;20.73;;;12.07;;
60494;SDS011;46342;49.046;11.920;2023-10-19T10:39:36;20.02;;;12.80;;
60494;SDS011;46342;49.046;11.920;2023-10-19T10:42:04;22.73;;;13.25;;
60494;SDS011;46342;49.046;11.920;2023-10-19T10:44:52;20.10;;;10.88;;
60494;SDS011;46342;49.046;11.920;2023-10-19T10:47:21;18.52;;;10.88;;
60494;SDS011;46342;49.046;11.920;2023-10-19T10:54:57;17.90;;;11.93;;
60494;SDS011;46342;49.046;11.920;2023-10-19T10:57:23;19.05;;;12.30;;
60494;SDS011;46342;49.046;11.920;2023-10-19T11:00:05;16.85;;;11.15;;
60494;SDS011;46342;49.046;11.920;2023-10-19T11:02:34;16.48;;;9.98;;
60494;SDS011;46342;49.046;11.920;2023-10-19T11:05:01;20.65;;;13.43;;
60494;SDS011;46342;49.046;11.920;2023-10-19T11:07:26;19.30;;;12.30;;
60494;SDS011;46342;49.046;11.920;2023-10-19T11:09:52;19.75;;;11.40;;
60494;SDS011;46342;49.046;11.920;2023-10-19T11:12:17;19.27;;;13.35;;
60494;SDS011;46342;49.046;11.920;2023-10-19T11:14:56;17.05;;;11.63;;
60494;SDS011;46342;49.046;11.920;2023-10-19T11:17:26;17.15;;;11.60;;
60494;SDS011;46342;49.046;11.920;2023-10-19T11:19:57;17.85;;;12.43;;
60494;SDS011;46342;49.046;11.920;2023-10-19T11:22:24;20.00;;;12.65;;
60494;SDS011;46342;49.046;11.920;2023-10-19T11:24:51;20.38;;;13.05;;
60494;SDS011;46342;49.046;11.920;2023-10-19T11:27:26;19.42;;;12.25;;
60494;SDS011;46342;49.046;11.920;2023-10-19T11:29:58;19.70;;;12.30;;
60494;SDS011;46342;49.046;11.920;2023-10-19T11:32:35;20.53;;;12.03;;
60494;SDS011;46342;49.046;11.920;2023-10-19T11:35:05;16.63;;;12.27;;
60494;SDS011;46342;49.046;11.920;2023-10-19T11:37:47;21.08;;;12.90;;
60494;SDS011;46342;49.046;11.920;2023-10-19T11:40:18;20.42;;;12.13;;
60494;SDS011;46342;49.046;11.920;2023-10-19T11:42:45;20.83;;;12.18;;
60494;SDS011;46342;49.046;11.920;2023-10-19T11:45:12;19.42;;;12.85;;
60494;SDS011;46342;49.046;11.920;2023-10-19T11:47:38;16.38;;;9.68;;
60494;SDS011;46342;49.046;11.920;2023-10-19T11:50:04;16.02;;;11.02;;
60494;SDS011;46342;49.046;11.920;2023-10-19T11:52:30;18.05;;;11.38;;
60494;SDS011;46342;49.046;11.920;2023-10-19T11:54:55;17.80;;;12.13;;
60494;SDS011;46342;49.046;11.920;2023-10-19T11:57:21;20.13;;;12.70;;
60494;SDS011;46342;49.046;11.920;2023-10-19T11:59:48;19.02;;;13.02;;
60494;SDS011;46342;49.046;11.920;2023-10-19T12:02:18;20.65;;;12.23;;
60494;SDS011;46342;49.046;11.920;2023-10-19T12:04:44;19.15;;;11.50;;
60494;SDS011;46342;49.046;11.920;2023-10-19T12:07:10;18.92;;;12.63;;
60494;SDS011;46342;49.046;11.920;2023-10-19T12:09:36;20.35;;;13.63;;
60494;SDS011;46342;49.046;11.920;2023-10-19T12:12:01;21.80;;;13.55;;
60494;SDS011;46342;49.046;11.920;2023-10-19T12:14:30;23.63;;;13.95;;
60494;SDS011;46342;49.046;11.920;2023-10-19T12:16:59;19.55;;;12.77;;
60494;SDS011;46342;49.046;11.920;2023-10-19T12:19:27;23.40;;;13.07;;
60494;SDS011;46342;49.046;11.920;2023-10-19T12:21:54;19.27;;;10.60;;
60494;SDS011;46342;49.046;11.920;2023-10-19T12:24:20;20.75;;;13.95;;
60494;SDS011;46342;49.046;11.920;2023-10-19T12:26:46;20.60;;;13.48;;
60494;SDS011;46342;49.046;11.920;2023-10-19T12:29:12;18.88;;;13.57;;
60494;SDS011;46342;49.046;11.920;2023-10-19T12:31:42;21.73;;;13.10;;
60494;SDS011;46342;49.046;11.920;2023-10-19T12:34:07;20.08;;;12.77;;
60494;SDS011;46342;49.046;11.920;2023-10-19T12:36:34;19.17;;;12.32;;
60494;SDS011;46342;49.046;11.920;2023-10-19T12:39:00;15.88;;;10.75;;
60494;SDS011;46342;49.046;11.920;2023-10-19T12:41:27;18.63;;;12.15;;
60494;SDS011;46342;49.046;11.920;2023-10-19T12:43:53;19.95;;;12.93;;
60494;SDS011;46342;49.046;11.920;2023-10-19T12:46:33;19.63;;;12.43;;
60494;SDS011;46342;49.046;11.920;2023-10-19T12:49:01;18.88;;;12.68;;
60494;SDS011;46342;49.046;11.920;2023-10-19T12:51:33;17.58;;;11.93;;
60494;SDS011;46342;49.046;11.920;2023-10-19T12:53:59;16.55;;;11.88;;
60494;SDS011;46342;49.046;11.920;2023-10-19T12:56:28;15.93;;;11.32;;
60494;SDS011;46342;49.046;11.920;2023-10-19T12:58:53;18.45;;;13.20;;
60494;SDS011;46342;49.046;11.920;2023-10-19T13:01:19;18.80;;;12.02;;
60494;SDS011;46342;49.046;11.920;2023-10-19T13:03:46;15.95;;;11.10;;
60494;SDS011;46342;49.046;11.920;2023-10-19T13:06:14;18.75;;;12.98;;
60494;SDS011;46342;49.046;11.920;2023-10-19T13:08:40;18.17;;;12.43;;
60494;SDS011;46342;49.046;11.920;2023-10-19T13:11:07;17.65;;;11.95;;
60494;SDS011;46342;49.046;11.920;2023-10-19T13:13:33;18.40;;;11.57;;
60494;SDS011;46342;49.046;11.920;2023-10-19T13:16:01;17.83;;;12.02;;
60494;SDS011;46342;49.046;11.920;2023-10-19T13:18:30;18.17;;;12.27;;
60494;SDS011;46342;49.046;11.920;2023-10-19T13:20:59;20.23;;;13.63;;
60494;SDS011;46342;49.046;11.920;2023-10-19T13:23:34;19.73;;;12.73;;
60494;SDS011;46342;49.046;11.920;2023-10-19T13:26:00;17.55;;;11.73;;
60494;SDS011;46342;49.046;11.920;2023-10-19T13:28:33;14.63;;;10.18;;
60494;SDS011;46342;49.046;11.920;2023-10-19T13:31:02;12.52;;;9.55;;
60494;SDS011;46342;49.046;11.920;2023-10-19T13:33:28;15.65;;;11.43;;
60494;SDS011;46342;49.046;11.920;2023-10-19T13:35:54;16.50;;;11.48;;
60494;SDS011;46342;49.046;11.920;2023-10-19T13:38:19;16.48;;;11.43;;
60494;SDS011;46342;49.046;11.920;2023-10-19T13:40:45;16.10;;;11.80;;
60494;SDS011;46342;49.046;11.920;2023-10-19T13:43:11;19.02;;;11.60;;
60494;SDS011;46342;49.046;11.920;2023-10-19T13:45:41;21.00;;;14.38;;
60494;SDS011;46342;49.046;11.920;2023-10-19T13:48:08;15.45;;;11.05;;
60494;SDS011;46342;49.046;11.920;2023-10-19T13:50:40;17.00;;;11.55;;
60494;SDS011;46342;49.046;11.920;2023-10-19T13:53:15;14.07;;;9.98;;
60494;SDS011;46342;49.046;11.920;2023-10-19T13:55:41;16.45;;;11.43;;
60494;SDS011;46342;49.046;11.920;2023-10-19T13:58:07;14.63;;;10.27;;
60494;SDS011;46342;49.046;11.920;2023-10-19T14:00:33;17.88;;;11.50;;
60494;SDS011;46342;49.046;11.920;2023-10-19T14:02:59;16.52;;;11.80;;
60494;SDS011;46342;49.046;11.920;2023-10-19T14:05:26;18.55;;;11.73;;
60494;SDS011;46342;49.046;11.920;2023-10-19T14:07:52;15.77;;;11.63;;
60494;SDS011;46342;49.046;11.920;2023-10-19T14:10:18;17.52;;;12.43;;
60494;SDS011;46342;49.046;11.920;2023-10-19T14:12:45;17.88;;;11.93;;
60494;SDS011;46342;49.046;11.920;2023-10-19T14:15:18;16.90;;;11.48;;
60494;SDS011;46342;49.046;11.920;2023-10-19T14:17:44;15.10;;;10.38;;
60494;SDS011;46342;49.046;11.920;2023-10-19T14:20:12;15.32;;;11.20;;
60494;SDS011;46342;49.046;11.920;2023-10-19T14:22:42;15.20;;;11.48;;
60494;SDS011;46342;49.046;11.920;2023-10-19T14:25:10;12.55;;;9.02;;
60494;SDS011;46342;49.046;11.920;2023-10-19T14:27:40;14.05;;;9.90;;
60494;SDS011;46342;49.046;11.920;2023-10-19T14:30:09;15.00;;;11.07;;
60494;SDS011;46342;49.046;11.920;2023-10-19T14:32:41;14.43;;;10.20;;
60494;SDS011;46342;49.046;11.920;2023-10-19T14:35:12;12.55;;;9.60;;
60494;SDS011;46342;49.046;11.920;2023-10-19T14:37:40;14.75;;;11.10;;
60494;SDS011;46342;49.046;11.920;2023-10-19T14:40:08;19.10;;;12.02;;
60494;SDS011;46342;49.046;11.920;2023-10-19T14:42:38;16.33;;;10.60;;
60494;SDS011;46342;49.046;11.920;2023-10-19T14:45:04;18.02;;;12.38;;
60494;SDS011;46342;49.046;11.920;2023-10-19T14:47:34;13.90;;;10.77;;